createdAt,value
2023-04-20T00:02:09.423Z,102575.66
2023-04-20T00:04:36.601Z,102574.34
2023-04-20T00:07:03.140Z,102566.00
2023-04-20T00:09:29.609Z,102563.63
2023-04-20T00:11:56.340Z,102556.81
2023-04-20T00:14:22.808Z,102558.06
2023-04-20T00:16:49.414Z,102553.13
2023-04-20T00:19:16.116Z,102548.16
2023-04-20T00:21:42.899Z,102537.47
2023-04-20T00:24:09.585Z,102537.66
2023-04-20T00:26:36.046Z,102538.88
2023-04-20T00:29:02.512Z,102532.22
2023-04-20T00:31:29.032Z,102517.28
2023-04-20T00:33:55.539Z,102513.38
2023-04-20T00:36:21.973Z,102521.59
2023-04-20T00:38:48.521Z,102503.19
2023-04-20T00:41:14.944Z,102506.88
2023-04-20T00:43:54.502Z,102503.69
2023-04-20T00:46:21.964Z,102484.00
2023-04-20T00:48:51.330Z,102490.09
2023-04-20T00:51:18.356Z,102475.66
2023-04-20T00:53:44.972Z,102476.19
2023-04-20T00:56:13.535Z,102467.63
2023-04-20T00:58:42.290Z,102460.72
2023-04-20T01:01:08.905Z,102464.25
2023-04-20T01:03:36.211Z,102451.25
2023-04-20T01:06:03.046Z,102452.19
2023-04-20T01:08:29.523Z,102451.03
2023-04-20T01:10:56.195Z,102451.13
2023-04-20T01:13:23.066Z,102436.53
2023-04-20T01:15:50.708Z,102433.97
2023-04-20T01:18:19.945Z,102438.38
2023-04-20T01:20:49.885Z,102438.38
2023-04-20T01:23:16.329Z,102423.06
2023-04-20T01:25:42.743Z,102427.38
2023-04-20T01:28:09.471Z,102424.06
2023-04-20T01:30:37.175Z,102414.78
2023-04-20T01:33:04.167Z,102407.06
2023-04-20T01:35:30.740Z,102407.28
2023-04-20T01:37:57.135Z,102403.38
2023-04-20T01:40:23.557Z,102398.03
2023-04-20T01:42:50.024Z,102395.25
2023-04-20T01:45:16.401Z,102397.72
2023-04-20T01:47:42.877Z,102396.16
2023-04-20T01:50:09.559Z,102391.84
2023-04-20T01:52:36.090Z,102390.00
2023-04-20T01:55:02.539Z,102395.03
2023-04-20T01:57:29.001Z,102381.13
2023-04-20T01:59:55.404Z,102385.97
2023-04-20T02:02:24.269Z,102377.00
2023-04-20T02:04:50.915Z,102380.97
2023-04-20T02:07:17.424Z,102369.25
2023-04-20T02:09:43.795Z,102367.47
2023-04-20T02:12:10.312Z,102365.41
2023-04-20T02:14:36.779Z,102355.97
2023-04-20T02:17:03.473Z,102353.06
2023-04-20T02:19:30.072Z,102344.06
2023-04-20T02:21:56.573Z,102346.91
2023-04-20T02:24:23.094Z,102336.34
2023-04-20T02:26:49.642Z,102336.50
2023-04-20T02:29:16.668Z,102334.72
2023-04-20T02:31:43.572Z,102326.19
2023-04-20T02:34:10.783Z,102325.69
2023-04-20T02:36:37.350Z,102321.84
2023-04-20T02:39:04.464Z,102311.41
2023-04-20T02:41:30.918Z,102312.31
2023-04-20T02:43:57.375Z,102305.88
2023-04-20T02:46:23.960Z,102299.88
2023-04-20T02:48:50.549Z,102296.97
2023-04-20T02:51:17.143Z,102291.47
2023-04-20T02:53:44.066Z,102295.38
2023-04-20T02:56:11.019Z,102291.97
2023-04-20T02:58:37.908Z,102294.09
2023-04-20T03:01:04.757Z,102280.25
2023-04-20T03:03:31.799Z,102285.53
2023-04-20T03:05:58.650Z,102281.53
2023-04-20T03:08:25.722Z,102274.69
2023-04-20T03:10:52.170Z,102272.25
2023-04-20T03:13:19.239Z,102284.75
2023-04-20T03:15:45.687Z,102261.28
2023-04-20T03:18:12.389Z,102264.06
2023-04-20T03:20:38.856Z,102267.81
2023-04-20T03:23:05.336Z,102263.19
2023-04-20T03:25:32.205Z,102263.78
2023-04-20T03:27:59.425Z,102256.34
2023-04-20T03:30:26.022Z,102257.31
2023-04-20T03:32:52.548Z,102263.28
2023-04-20T03:35:20.873Z,102260.44
2023-04-20T03:37:47.452Z,102259.53
2023-04-20T03:40:13.846Z,102262.66
2023-04-20T03:42:41.375Z,102252.09
2023-04-20T03:45:08.237Z,102250.06
2023-04-20T03:47:34.680Z,102250.63
2023-04-20T03:50:01.280Z,102244.53
2023-04-20T03:52:27.877Z,102246.84
2023-04-20T03:54:54.403Z,102245.91
2023-04-20T03:57:21.017Z,102230.25
2023-04-20T03:59:47.454Z,102236.97
2023-04-20T04:02:14.001Z,102229.06
2023-04-20T04:04:41.475Z,102229.19
2023-04-20T04:07:07.991Z,102224.59
2023-04-20T04:09:34.389Z,102211.78
2023-04-20T04:12:01.344Z,102219.66
2023-04-20T04:14:30.114Z,102217.53
2023-04-20T04:16:56.663Z,102214.13
2023-04-20T04:19:23.144Z,102203.78
2023-04-20T04:21:49.554Z,102207.19
2023-04-20T04:24:16.850Z,102205.00
2023-04-20T04:26:43.629Z,102194.78
2023-04-20T04:29:10.549Z,102189.22
2023-04-20T04:31:37.060Z,102186.75
2023-04-20T04:34:03.698Z,102186.50
2023-04-20T04:36:30.137Z,102189.09
2023-04-20T04:38:56.582Z,102177.00
2023-04-20T04:41:23.503Z,102183.78
2023-04-20T04:43:50.000Z,102188.16
2023-04-20T04:46:16.511Z,102187.34
2023-04-20T04:48:43.494Z,102178.50
2023-04-20T04:51:10.065Z,102186.00
2023-04-20T04:53:36.899Z,102172.81
2023-04-20T04:56:04.349Z,102177.97
2023-04-20T04:58:30.973Z,102174.47
2023-04-20T05:00:57.394Z,102186.53
2023-04-20T05:03:24.038Z,102183.16
2023-04-20T05:05:50.763Z,102190.47
2023-04-20T05:08:17.201Z,102183.34
2023-04-20T05:10:43.676Z,102183.72
2023-04-20T05:13:10.169Z,102187.03
2023-04-20T05:15:36.649Z,102174.22
2023-04-20T05:18:03.224Z,102182.91
2023-04-20T05:20:29.694Z,102178.69
2023-04-20T05:22:56.167Z,102180.72
2023-04-20T05:25:22.748Z,102177.19
2023-04-20T05:27:49.317Z,102179.53
2023-04-20T05:30:21.160Z,102170.13
2023-04-20T05:32:51.381Z,102174.22
2023-04-20T05:35:18.731Z,102181.84
2023-04-20T05:37:45.331Z,102180.91
2023-04-20T05:40:11.927Z,102179.84
2023-04-20T05:42:38.362Z,102179.84
2023-04-20T05:45:05.519Z,102174.53
2023-04-20T05:47:32.039Z,102181.56
2023-04-20T05:49:59.491Z,102169.25
2023-04-20T05:52:25.929Z,102169.94
2023-04-20T05:54:52.701Z,102176.88
2023-04-20T05:57:19.109Z,102183.53
2023-04-20T05:59:45.610Z,102179.63
2023-04-20T06:02:12.087Z,102163.03
2023-04-20T06:04:38.809Z,102164.53
2023-04-20T06:07:05.340Z,102170.41
2023-04-20T06:09:31.768Z,102158.84
2023-04-20T06:11:58.531Z,102162.00
2023-04-20T06:14:24.966Z,102159.97
2023-04-20T06:16:51.439Z,102153.72
2023-04-20T06:19:18.060Z,102149.34
2023-04-20T06:21:44.660Z,102148.69
2023-04-20T06:24:11.050Z,102150.84
2023-04-20T06:26:37.433Z,102157.22
2023-04-20T06:29:03.815Z,102143.84
2023-04-20T06:31:30.329Z,102157.03
2023-04-20T06:33:57.996Z,102144.63
2023-04-20T06:36:24.464Z,102149.50
2023-04-20T06:38:51.637Z,102147.03
2023-04-20T06:41:18.132Z,102153.13
2023-04-20T06:43:45.828Z,102138.16
2023-04-20T06:46:12.255Z,102150.78
2023-04-20T06:48:38.672Z,102144.34
2023-04-20T06:51:05.154Z,102144.16
2023-04-20T06:53:31.783Z,102129.28
2023-04-20T06:55:58.227Z,102142.41
2023-04-20T06:58:24.658Z,102151.41
2023-04-20T07:00:51.082Z,102154.22
2023-04-20T07:03:19.197Z,102161.28
2023-04-20T07:05:46.308Z,102151.22
2023-04-20T07:08:12.725Z,102154.47
2023-04-20T07:10:39.139Z,102169.03
2023-04-20T07:13:05.656Z,102156.38
2023-04-20T07:15:32.020Z,102157.19
2023-04-20T07:17:58.377Z,102156.38
2023-04-20T07:20:25.578Z,102160.50
2023-04-20T07:22:52.107Z,102156.28
2023-04-20T07:25:18.574Z,102160.38
2023-04-20T07:27:45.254Z,102157.44
2023-04-20T07:30:12.138Z,102139.09
2023-04-20T07:32:41.193Z,102153.31
2023-04-20T07:35:08.580Z,102158.47
2023-04-20T07:37:35.484Z,102166.50
2023-04-20T07:40:02.548Z,102169.00
2023-04-20T07:42:29.800Z,102164.44
2023-04-20T07:44:56.321Z,102156.25
2023-04-20T07:47:23.052Z,102161.03
2023-04-20T07:49:49.824Z,102173.38
2023-04-20T07:52:17.435Z,102160.72
2023-04-20T07:54:47.177Z,102156.63
2023-04-20T07:57:13.634Z,102154.16
2023-04-20T07:59:40.969Z,102162.25
2023-04-20T08:02:08.023Z,102165.53
2023-04-20T08:04:36.964Z,102159.56
2023-04-20T08:07:03.573Z,102162.59
2023-04-20T08:09:30.382Z,102157.66
2023-04-20T08:11:57.639Z,102152.59
2023-04-20T08:14:24.162Z,102146.25
2023-04-20T08:16:50.574Z,102146.81
2023-04-20T08:19:16.988Z,102140.00
2023-04-20T08:21:43.526Z,102137.41
2023-04-20T08:24:10.041Z,102139.53
2023-04-20T08:26:37.288Z,102128.41
2023-04-20T08:29:05.289Z,102136.47
2023-04-20T08:31:32.595Z,102127.91
2023-04-20T08:33:59.089Z,102128.50
2023-04-20T08:36:27.977Z,102124.81
2023-04-20T08:39:05.628Z,102125.41
2023-04-20T08:41:32.202Z,102116.47
2023-04-20T08:43:58.648Z,102131.50
2023-04-20T08:46:25.356Z,102126.41
2023-04-20T08:48:53.387Z,102123.94
2023-04-20T08:51:20.077Z,102130.88
2023-04-20T08:53:46.536Z,102120.28
2023-04-20T08:56:13.116Z,102118.03
2023-04-20T08:58:42.805Z,102111.69
2023-04-20T09:01:12.825Z,102104.03
2023-04-20T09:03:42.986Z,102105.75
2023-04-20T09:06:17.580Z,102115.34
2023-04-20T09:08:46.355Z,102103.38
2023-04-20T09:11:27.047Z,102097.81
2023-04-20T09:14:10.066Z,102094.16
2023-04-20T09:16:37.607Z,102095.53
2023-04-20T09:19:04.434Z,102096.38
2023-04-20T09:21:32.628Z,102107.81
2023-04-20T09:24:06.343Z,102104.84
2023-04-20T09:26:34.840Z,102106.44
2023-04-20T09:29:03.057Z,102084.59
2023-04-20T09:31:29.800Z,102078.50
2023-04-20T09:34:02.947Z,102094.78
2023-04-20T09:36:40.210Z,102083.06
2023-04-20T09:39:10.299Z,102084.88
2023-04-20T09:41:38.606Z,102094.72
2023-04-20T09:44:06.703Z,102078.50
2023-04-20T09:46:38.177Z,102089.94
2023-04-20T09:49:07.292Z,102089.53
2023-04-20T09:51:36.673Z,102085.59
2023-04-20T09:54:05.663Z,102084.63
2023-04-20T09:56:33.130Z,102091.19
2023-04-20T09:59:00.991Z,102076.19
2023-04-20T10:01:31.283Z,102075.22
2023-04-20T10:03:59.623Z,102068.28
2023-04-20T10:06:31.715Z,102067.28
2023-04-20T10:09:02.924Z,102072.31
2023-04-20T10:11:40.644Z,102064.97
2023-04-20T10:14:24.334Z,102061.06
2023-04-20T10:17:02.048Z,102067.63
2023-04-20T10:19:41.087Z,102058.59
2023-04-20T10:22:09.129Z,102062.00
2023-04-20T10:24:38.077Z,102056.41
2023-04-20T10:27:16.045Z,102059.41
2023-04-20T10:29:42.588Z,102050.97
2023-04-20T10:32:09.065Z,102051.53
2023-04-20T10:34:36.782Z,102048.13
2023-04-20T10:37:10.965Z,102030.50
2023-04-20T10:39:44.874Z,102035.91
2023-04-20T10:42:11.331Z,102045.34
2023-04-20T10:44:51.237Z,102036.94
2023-04-20T10:47:26.407Z,102041.84
2023-04-20T10:49:53.200Z,102038.28
2023-04-20T10:52:32.679Z,102039.53
2023-04-20T10:54:59.089Z,102047.81
2023-04-20T10:57:25.485Z,102039.25
2023-04-20T10:59:52.137Z,102035.66
2023-04-20T11:02:18.607Z,102027.31
2023-04-20T11:04:45.098Z,102020.03
2023-04-20T11:07:13.601Z,102008.44
2023-04-20T11:09:40.840Z,102003.78
2023-04-20T11:12:12.158Z,102008.56
2023-04-20T11:14:50.551Z,102004.47
2023-04-20T11:17:17.102Z,101991.78
2023-04-20T11:19:43.858Z,102011.09
2023-04-20T11:22:21.623Z,102007.53
2023-04-20T11:24:48.168Z,101999.94
2023-04-20T11:27:22.220Z,101995.22
2023-04-20T11:29:57.836Z,102002.59
2023-04-20T11:32:24.516Z,101997.41
2023-04-20T11:35:06.983Z,101991.91
2023-04-20T11:37:38.621Z,102005.41
2023-04-20T11:40:10.867Z,102002.28
2023-04-20T11:42:39.832Z,102003.72
2023-04-20T11:45:06.895Z,101989.91
2023-04-20T11:47:33.318Z,101996.53
2023-04-20T11:49:59.837Z,101993.41
2023-04-20T11:52:26.242Z,101998.75
2023-04-20T11:54:52.754Z,101994.22
2023-04-20T11:57:21.815Z,101992.28
2023-04-20T11:59:49.128Z,101992.34
2023-04-20T12:02:15.894Z,101994.56
2023-04-20T12:04:42.748Z,101992.31
2023-04-20T12:07:09.598Z,101988.97
2023-04-20T12:09:38.424Z,101992.16
2023-04-20T12:12:06.390Z,101995.81
2023-04-20T12:14:33.706Z,101993.22
2023-04-20T12:17:04.559Z,101989.84
2023-04-20T12:19:32.098Z,102001.44
2023-04-20T12:21:58.894Z,101987.28
2023-04-20T12:24:25.514Z,101975.97
2023-04-20T12:26:51.952Z,101979.47
2023-04-20T12:29:18.812Z,101984.69
2023-04-20T12:31:45.524Z,101981.81
2023-04-20T12:34:12.231Z,101980.50
2023-04-20T12:36:38.661Z,101976.94
2023-04-20T12:39:06.822Z,101975.38
2023-04-20T12:41:34.300Z,101971.06
2023-04-20T12:44:03.476Z,101965.41
2023-04-20T12:46:32.021Z,101970.97
2023-04-20T12:48:58.716Z,101967.13
2023-04-20T12:51:25.201Z,101960.09
2023-04-20T12:53:51.754Z,101961.19
2023-04-20T12:56:18.195Z,101967.66
2023-04-20T12:58:44.668Z,101967.22
2023-04-20T13:01:11.186Z,101971.97
2023-04-20T13:03:37.846Z,101959.66
2023-04-20T13:06:05.237Z,101968.72
2023-04-20T13:08:31.744Z,101968.50
2023-04-20T13:10:58.150Z,101965.25
2023-04-20T13:13:24.680Z,101973.97
2023-04-20T13:15:53.766Z,101958.16
2023-04-20T13:18:21.975Z,101965.00
2023-04-20T13:20:48.369Z,101971.81
2023-04-20T13:23:15.416Z,101959.22
2023-04-20T13:25:42.186Z,101958.97
2023-04-20T13:28:08.621Z,101960.34
2023-04-20T13:30:35.058Z,101942.81
2023-04-20T13:33:01.583Z,101940.06
2023-04-20T13:35:28.196Z,101945.19
2023-04-20T13:37:54.691Z,101940.09
2023-04-20T13:40:21.125Z,101945.03
2023-04-20T13:42:47.808Z,101945.25
2023-04-20T13:45:14.295Z,101941.84
2023-04-20T13:47:41.003Z,101940.28
2023-04-20T13:50:09.494Z,101942.13
2023-04-20T13:52:36.142Z,101940.00
2023-04-20T13:55:02.972Z,101923.00
2023-04-20T13:57:31.546Z,101921.38
2023-04-20T13:59:59.162Z,101927.78
2023-04-20T14:02:25.648Z,101918.19
2023-04-20T14:04:52.438Z,101914.97
2023-04-20T14:07:19.171Z,101917.75
2023-04-20T14:09:46.377Z,101915.66
2023-04-20T14:12:14.251Z,101907.19
2023-04-20T14:14:41.055Z,101920.00
2023-04-20T14:17:07.489Z,101917.75
2023-04-20T14:19:33.862Z,101911.28
2023-04-20T14:22:00.362Z,101904.78
2023-04-20T14:24:26.757Z,101905.78
2023-04-20T14:26:54.033Z,101911.63
2023-04-20T14:29:20.969Z,101907.84
2023-04-20T14:31:47.485Z,101904.94
2023-04-20T14:34:14.644Z,101896.84
2023-04-20T14:36:42.111Z,101896.13
2023-04-20T14:39:08.504Z,101889.97
2023-04-20T14:41:35.295Z,101897.47
2023-04-20T14:44:01.916Z,101888.22
2023-04-20T14:46:28.549Z,101881.50
2023-04-20T14:48:55.162Z,101895.53
2023-04-20T14:51:21.994Z,101886.41
2023-04-20T14:53:48.444Z,101879.22
2023-04-20T14:56:14.901Z,101896.81
2023-04-20T14:58:42.431Z,101888.66
2023-04-20T15:01:08.912Z,101893.22
2023-04-20T15:03:35.485Z,101888.50
2023-04-20T15:06:03.519Z,101887.50
2023-04-20T15:08:30.656Z,101889.97
2023-04-20T15:10:57.242Z,101896.19
2023-04-20T15:13:24.284Z,101874.34
2023-04-20T15:15:53.346Z,101880.84
2023-04-20T15:18:21.363Z,101878.44
2023-04-20T15:20:47.785Z,101885.09
2023-04-20T15:23:14.257Z,101875.03
2023-04-20T15:25:40.614Z,101875.03
2023-04-20T15:28:06.987Z,101868.66
2023-04-20T15:30:33.670Z,101866.06
2023-04-20T15:33:04.591Z,101857.47
2023-04-20T15:35:32.054Z,101862.00
2023-04-20T15:37:58.443Z,101879.56
2023-04-20T15:40:25.110Z,101867.53
2023-04-20T15:42:51.673Z,101860.84
2023-04-20T15:45:18.656Z,101866.34
2023-04-20T15:47:45.066Z,101862.75
2023-04-20T15:50:11.595Z,101860.31
2023-04-20T15:52:38.264Z,101861.03
2023-04-20T15:55:05.384Z,101856.78
2023-04-20T15:57:32.106Z,101856.28
2023-04-20T15:59:58.758Z,101851.41
2023-04-20T16:02:25.252Z,101854.47
2023-04-20T16:04:51.887Z,101851.03
2023-04-20T16:07:18.489Z,101849.84
2023-04-20T16:09:44.981Z,101843.38
2023-04-20T16:12:11.456Z,101860.66
2023-04-20T16:14:37.880Z,101845.50
2023-04-20T16:17:04.288Z,101847.50
2023-04-20T16:19:31.609Z,101857.47
2023-04-20T16:21:58.166Z,101866.56
2023-04-20T16:24:24.619Z,101859.38
2023-04-20T16:26:51.254Z,101855.81
2023-04-20T16:29:17.702Z,101867.94
2023-04-20T16:31:44.195Z,101872.69
2023-04-20T16:34:10.715Z,101858.91
2023-04-20T16:36:37.206Z,101866.22
2023-04-20T16:39:06.149Z,101858.38
2023-04-20T16:41:32.649Z,101851.56
2023-04-20T16:43:59.087Z,101847.13
2023-04-20T16:46:25.764Z,101850.41
2023-04-20T16:48:54.463Z,101845.72
2023-04-20T16:51:21.038Z,101853.03
2023-04-20T16:53:47.453Z,101856.63
2023-04-20T16:56:13.856Z,101849.81
2023-04-20T16:58:40.402Z,101850.44
2023-04-20T17:01:07.592Z,101858.50
2023-04-20T17:03:34.488Z,101854.78
2023-04-20T17:06:07.560Z,101859.53
2023-04-20T17:08:34.476Z,101856.25
2023-04-20T17:11:01.813Z,101849.09
2023-04-20T17:13:28.255Z,101860.44
2023-04-20T17:15:54.675Z,101868.03
2023-04-20T17:18:21.098Z,101863.28
2023-04-20T17:20:47.947Z,101858.75
2023-04-20T17:23:18.380Z,101859.25
2023-04-20T17:25:47.259Z,101862.34
2023-04-20T17:28:14.234Z,101863.78
2023-04-20T17:30:41.487Z,101852.44
2023-04-20T17:33:13.893Z,101846.13
2023-04-20T17:35:40.604Z,101853.41
2023-04-20T17:38:07.051Z,101856.47
2023-04-20T17:40:33.856Z,101855.47
2023-04-20T17:43:00.586Z,101867.50
2023-04-20T17:45:27.029Z,101866.72
2023-04-20T17:47:53.797Z,101860.56
2023-04-20T17:50:20.452Z,101872.25
2023-04-20T17:52:46.834Z,101868.50
2023-04-20T17:55:13.268Z,101875.81
2023-04-20T17:57:39.948Z,101878.91
2023-04-20T18:00:08.908Z,101873.53
2023-04-20T18:02:35.788Z,101870.31
2023-04-20T18:05:02.266Z,101884.25
2023-04-20T18:07:28.757Z,101880.66
2023-04-20T18:09:55.526Z,101882.03
2023-04-20T18:12:22.215Z,101885.38
2023-04-20T18:14:48.732Z,101884.38
2023-04-20T18:17:15.178Z,101881.63
2023-04-20T18:19:41.593Z,101876.53
2023-04-20T18:22:08.955Z,101878.34
2023-04-20T18:24:35.345Z,101881.22
2023-04-20T18:27:01.988Z,101886.19
2023-04-20T18:29:29.798Z,101889.78
2023-04-20T18:31:59.110Z,101879.69
2023-04-20T18:34:29.858Z,101875.56
2023-04-20T18:36:56.969Z,101884.13
2023-04-20T18:39:24.244Z,101884.56
2023-04-20T18:41:50.715Z,101888.50
2023-04-20T18:44:17.386Z,101888.00
2023-04-20T18:46:44.166Z,101889.84
2023-04-20T18:49:11.624Z,101884.28
2023-04-20T18:51:38.263Z,101891.22
2023-04-20T18:54:04.943Z,101895.91
2023-04-20T18:56:34.096Z,101900.66
2023-04-20T18:59:01.670Z,101900.56
2023-04-20T19:01:28.589Z,101901.88
2023-04-20T19:03:55.543Z,101911.69
2023-04-20T19:06:22.312Z,101902.84
2023-04-20T19:08:50.581Z,101917.97
2023-04-20T19:11:17.145Z,101916.78
2023-04-20T19:13:45.226Z,101921.22
2023-04-20T19:16:12.350Z,101918.88
2023-04-20T19:18:39.718Z,101918.06
2023-04-20T19:21:06.854Z,101913.69
2023-04-20T19:23:35.629Z,101916.88
2023-04-20T19:26:02.707Z,101923.34
2023-04-20T19:28:29.255Z,101925.66
2023-04-20T19:30:55.791Z,101928.53
2023-04-20T19:33:22.371Z,101929.78
2023-04-20T19:35:50.861Z,101925.88
2023-04-20T19:38:18.618Z,101923.44
2023-04-20T19:40:45.730Z,101906.66
2023-04-20T19:43:12.183Z,101903.72
2023-04-20T19:45:40.172Z,101906.59
2023-04-20T19:48:06.753Z,101906.09
2023-04-20T19:50:33.563Z,101909.78
2023-04-20T19:53:00.035Z,101915.13
2023-04-20T19:55:26.535Z,101907.63
2023-04-20T19:57:53.057Z,101914.22
2023-04-20T20:00:19.695Z,101916.59
2023-04-20T20:02:46.525Z,101929.19
2023-04-20T20:05:13.125Z,101934.13
2023-04-20T20:07:39.600Z,101942.38
2023-04-20T20:10:06.456Z,101934.31
2023-04-20T20:12:32.962Z,101929.59
2023-04-20T20:15:01.128Z,101930.69
2023-04-20T20:17:27.604Z,101933.72
2023-04-20T20:19:55.737Z,101931.56
2023-04-20T20:22:22.470Z,101919.03
2023-04-20T20:24:51.162Z,101923.53
2023-04-20T20:27:17.601Z,101920.94
2023-04-20T20:29:44.108Z,101912.78
2023-04-20T20:32:10.502Z,101912.41
2023-04-20T20:34:36.931Z,101911.91
2023-04-20T20:37:04.255Z,101906.84
2023-04-20T20:39:32.389Z,101903.44
2023-04-20T20:41:59.550Z,101903.19
2023-04-20T20:44:30.228Z,101903.59
2023-04-20T20:46:56.801Z,101899.41
2023-04-20T20:49:23.316Z,101895.88
2023-04-20T20:51:49.709Z,101895.47
2023-04-20T20:54:16.131Z,101904.50
2023-04-20T20:56:43.564Z,101888.66
2023-04-20T20:59:10.362Z,101894.84
2023-04-20T21:01:36.987Z,101894.03
2023-04-20T21:04:04.725Z,101876.63
2023-04-20T21:06:32.406Z,101892.28
2023-04-20T21:08:58.821Z,101890.13
2023-04-20T21:11:25.182Z,101878.00
2023-04-20T21:13:51.592Z,101873.81
2023-04-20T21:16:18.114Z,101876.41
2023-04-20T21:18:44.538Z,101875.03
2023-04-20T21:21:12.811Z,101873.84
2023-04-20T21:23:39.368Z,101880.50
2023-04-20T21:26:05.797Z,101888.25
2023-04-20T21:28:32.745Z,101886.34
2023-04-20T21:30:59.444Z,101882.66
2023-04-20T21:33:26.015Z,101874.50
2023-04-20T21:35:52.709Z,101873.97
2023-04-20T21:38:19.100Z,101880.50
2023-04-20T21:40:45.491Z,101876.97
2023-04-20T21:43:11.865Z,101864.56
2023-04-20T21:45:38.339Z,101869.75
2023-04-20T21:48:04.924Z,101867.97
2023-04-20T21:50:31.466Z,101868.66
2023-04-20T21:52:57.996Z,101879.00
2023-04-20T21:55:24.577Z,101876.25
2023-04-20T21:57:51.085Z,101889.19
2023-04-20T22:00:18.150Z,101873.97
2023-04-20T22:02:44.897Z,101887.56
2023-04-20T22:05:11.862Z,101889.34
2023-04-20T22:07:38.886Z,101892.88
2023-04-20T22:10:07.674Z,101901.59
2023-04-20T22:12:39.738Z,101898.31
2023-04-20T22:15:11.203Z,101885.94
2023-04-20T22:17:38.142Z,101887.84
2023-04-20T22:20:09.391Z,101894.81
2023-04-20T22:22:36.754Z,101894.81
2023-04-20T22:25:04.731Z,101894.38
2023-04-20T22:27:32.607Z,101883.06
2023-04-20T22:29:59.186Z,101867.56
2023-04-20T22:32:25.631Z,101869.19
2023-04-20T22:34:52.069Z,101878.72
2023-04-20T22:37:18.799Z,101871.09
2023-04-20T22:39:45.254Z,101877.63
2023-04-20T22:42:11.787Z,101870.81
2023-04-20T22:44:38.228Z,101865.63
2023-04-20T22:47:05.057Z,101869.47
2023-04-20T22:49:31.840Z,101853.13
2023-04-20T22:51:58.289Z,101848.78
2023-04-20T22:54:24.819Z,101853.94
2023-04-20T22:56:51.649Z,101855.03
2023-04-20T22:59:18.241Z,101852.56
2023-04-20T23:01:45.188Z,101848.25
2023-04-20T23:04:11.892Z,101836.66
2023-04-20T23:06:38.570Z,101841.16
2023-04-20T23:09:07.910Z,101833.41
2023-04-20T23:11:38.664Z,101821.03
2023-04-20T23:14:06.667Z,101824.41
2023-04-20T23:16:33.573Z,101821.44
2023-04-20T23:19:01.092Z,101811.22
2023-04-20T23:21:28.557Z,101800.88
2023-04-20T23:23:58.475Z,101810.94
2023-04-20T23:26:25.543Z,101807.97
2023-04-20T23:28:53.266Z,101782.09
2023-04-20T23:31:20.735Z,101772.84
2023-04-20T23:33:48.098Z,101765.06
2023-04-20T23:36:15.311Z,101763.84
2023-04-20T23:38:42.126Z,101775.84
2023-04-20T23:41:10.456Z,101777.72
2023-04-20T23:43:38.502Z,101770.25
2023-04-20T23:46:05.926Z,101780.91
2023-04-20T23:48:32.678Z,101779.38
2023-04-20T23:50:59.334Z,101782.13
2023-04-20T23:53:26.220Z,101774.22
2023-04-20T23:55:55.414Z,101773.41
2023-04-20T23:58:28.725Z,101759.50
